Time;durP1;ratioP1;P1;durP2;ratioP2;P2;SDS_P1;SDS_P2;PMS_P1;PMS_P2;Temp;Humidity;BMP_temperature;BMP_pressure;BME280_temperature;BME280_humidity;BME280_pressure;Samples;Min_cycle;Max_cycle;Signal;HPM_P1;HPM_P2
2023/04/25 00:01:57;;;;;;;1.13;0.93;;;10.80;1.00;;;;;;5114362;28;20366;-67
2023/04/25 00:04:32;;;;;;;1.65;1.35;;;10.80;1.00;;;;;;5104864;28;20061;-65
2023/04/25 00:07:09;;;;;;;1.60;1.50;;;10.70;1.00;;;;;;5118667;28;20053;-69
2023/04/25 00:09:41;;;;;;;1.10;1.10;;;10.70;1.00;;;;;;5132192;28;20034;-69
2023/04/25 00:12:13;;;;;;;2.75;1.02;;;10.70;1.00;;;;;;5113868;28;20046;-66
2023/04/25 00:14:49;;;;;;;1.45;1.35;;;10.70;1.00;;;;;;5130677;28;20050;-66
2023/04/25 00:17:24;;;;;;;1.30;1.20;;;10.70;1.00;;;;;;5130893;28;20043;-67
2023/04/25 00:19:58;;;;;;;1.63;1.15;;;10.70;1.00;;;;;;5131517;28;20047;-67
2023/04/25 00:22:39;;;;;;;1.02;0.95;;;10.70;1.00;;;;;;5131228;28;20050;-66
2023/04/25 00:25:11;;;;;;;1.15;1.10;;;10.70;1.00;;;;;;5103869;28;20038;-67
2023/04/25 00:27:42;;;;;;;1.25;1.25;;;10.70;1.00;;;;;;5136167;28;20050;-68
2023/04/25 00:30:19;;;;;;;1.55;1.40;;;10.70;1.00;;;;;;5118354;28;20076;-67
2023/04/25 00:32:56;;;;;;;1.48;1.35;;;10.70;1.00;;;;;;5123862;28;20042;-67
2023/04/25 00:35:32;;;;;;;1.63;1.52;;;10.60;1.00;;;;;;5133899;28;20050;-67
2023/04/25 00:38:04;;;;;;;1.52;1.42;;;10.60;1.00;;;;;;5116755;28;20052;-66
2023/04/25 00:40:36;;;;;;;1.13;1.08;;;10.60;1.00;;;;;;5116006;28;20042;-66
2023/04/25 00:43:08;;;;;;;1.20;1.10;;;10.60;1.00;;;;;;5136475;28;20053;-67
2023/04/25 00:45:43;;;;;;;1.10;1.10;;;10.60;1.00;;;;;;5142661;28;20213;-66
2023/04/25 00:48:14;;;;;;;;;;;10.60;1.00;;;;;;5087645;28;20060;-65
2023/04/25 00:50:54;;;;;;;1.40;1.30;;;10.60;1.00;;;;;;5154528;28;19914;-66
2023/04/25 00:53:30;;;;;;;1.83;1.30;;;10.60;1.00;;;;;;5137894;28;20084;-68
2023/04/25 00:56:06;;;;;;;1.45;1.35;;;10.60;1.00;;;;;;5120778;28;20044;-68
2023/04/25 00:58:43;;;;;;;5.60;1.33;;;10.50;1.00;;;;;;5122683;28;20031;-66
2023/04/25 01:03:50;;;;;;;1.42;1.33;;;10.50;1.00;;;;;;5147889;28;20354;-66
2023/04/25 01:06:25;;;;;;;1.40;1.10;;;10.50;1.00;;;;;;5108127;28;20907;-69
2023/04/25 01:08:56;;;;;;;1.98;1.73;;;10.50;1.00;;;;;;5132592;28;20049;-67
2023/04/25 01:11:30;;;;;;;1.95;1.38;;;10.50;1.00;;;;;;5150997;28;20023;-65
2023/04/25 01:14:09;;;;;;;1.23;1.02;;;10.50;1.00;;;;;;5118725;28;20031;-68
2023/04/25 01:16:44;;;;;;;1.48;1.38;;;10.50;1.00;;;;;;5096335;28;20072;-69
2023/04/25 01:19:18;;;;;;;1.77;1.27;;;10.40;1.00;;;;;;5121265;28;20050;-66
2023/04/25 01:21:49;;;;;;;1.83;1.42;;;10.40;1.00;;;;;;5128856;28;20030;-67
2023/04/25 01:24:21;;;;;;;1.27;1.20;;;10.40;1.00;;;;;;5119369;28;20042;-68
2023/04/25 01:27:01;;;;;;;2.13;1.38;;;10.40;1.00;;;;;;5105483;28;20046;-69
2023/04/25 01:29:40;;;;;;;0.82;0.82;;;10.40;1.00;;;;;;5103461;28;20050;-67
2023/04/25 01:32:20;;;;;;;1.27;1.17;;;10.40;1.00;;;;;;5126422;28;20149;-68
2023/04/25 01:34:52;;;;;;;1.30;1.20;;;10.40;1.00;;;;;;5134244;28;20046;-67
2023/04/25 01:37:24;;;;;;;1.23;1.13;;;10.40;1.00;;;;;;5105015;28;20327;-65
2023/04/25 01:39:58;;;;;;;1.40;1.30;;;10.40;1.00;;;;;;5120456;28;20250;-68
2023/04/25 01:42:29;;;;;;;;;;;10.30;1.00;;;;;;5153778;28;20049;-66
2023/04/25 01:45:07;;;;;;;1.15;1.13;;;10.30;1.00;;;;;;5152797;28;19923;-68
2023/04/25 01:47:43;;;;;;;1.25;1.13;;;10.30;1.00;;;;;;5151614;28;20048;-68
2023/04/25 01:50:24;;;;;;;1.35;1.25;;;10.30;1.00;;;;;;5100948;28;20055;-68
2023/04/25 01:53:03;;;;;;;1.40;1.30;;;10.20;1.00;;;;;;5125865;28;20066;-67
2023/04/25 01:55:45;;;;;;;1.27;1.17;;;10.20;1.00;;;;;;5147868;28;20034;-67
2023/04/25 01:58:19;;;;;;;1.80;1.70;;;10.20;1.00;;;;;;5115593;28;20163;-68
2023/04/25 02:00:54;;;;;;;1.63;1.52;;;10.20;1.00;;;;;;5099834;28;20346;-67
2023/04/25 02:03:29;;;;;;;1.33;1.23;;;10.20;1.00;;;;;;5111881;28;20076;-66
2023/04/25 02:06:04;;;;;;;2.05;1.85;;;10.10;1.00;;;;;;5085406;28;20055;-68
2023/04/25 02:08:38;;;;;;;;;;;10.10;1.00;;;;;;5099189;28;20039;-66
2023/04/25 02:11:11;;;;;;;1.65;1.55;;;10.10;1.00;;;;;;5116355;28;19914;-68
2023/04/25 02:13:42;;;;;;;1.77;1.35;;;10.00;1.00;;;;;;5132765;28;20316;-67
2023/04/25 02:16:14;;;;;;;2.00;1.58;;;10.00;1.00;;;;;;5097587;28;20077;-68
2023/04/25 02:18:52;;;;;;;1.38;1.27;;;9.90;1.00;;;;;;5115480;28;20045;-68
2023/04/25 02:21:31;;;;;;;1.42;1.33;;;9.90;1.00;;;;;;5069062;28;20046;-67
2023/04/25 02:24:09;;;;;;;1.20;1.10;;;9.80;1.00;;;;;;5107031;28;20389;-69
2023/04/25 02:26:40;;;;;;;1.65;1.50;;;9.80;1.00;;;;;;5101850;28;20045;-67
2023/04/25 02:29:12;;;;;;;1.50;1.20;;;9.80;1.00;;;;;;5099255;28;20068;-64
2023/04/25 02:31:46;;;;;;;1.30;1.20;;;9.80;1.00;;;;;;5097185;28;20042;-67
2023/04/25 02:34:26;;;;;;;1.30;1.20;;;9.80;1.00;;;;;;5115620;28;20045;-67
2023/04/25 02:36:59;;;;;;;1.45;1.35;;;9.70;1.00;;;;;;5116926;28;20052;-68
2023/04/25 02:39:36;;;;;;;1.38;1.27;;;9.70;1.00;;;;;;5114922;28;20374;-68
2023/04/25 02:42:16;;;;;;;1.77;1.40;;;9.70;1.00;;;;;;5103020;28;20050;-65
2023/04/25 02:44:50;;;;;;;1.35;1.25;;;9.70;1.00;;;;;;5082872;28;20053;-70
2023/04/25 02:47:26;;;;;;;1.45;1.15;;;9.70;1.00;;;;;;5073474;28;20047;-67
2023/04/25 02:49:59;;;;;;;1.33;1.23;;;9.70;1.00;;;;;;5093711;28;20055;-66
2023/04/25 02:52:33;;;;;;;1.75;1.63;;;9.60;1.00;;;;;;5093438;28;20043;-69
2023/04/25 02:55:12;;;;;;;;;;;9.60;1.00;;;;;;5084775;29;20039;-66
2023/04/25 02:57:43;;;;;;;0.95;0.93;;;9.60;1.00;;;;;;5097014;28;19929;-68
2023/04/25 03:00:17;;;;;;;2.67;1.50;;;9.60;1.00;;;;;;5124524;28;20046;-67
2023/04/25 03:02:48;;;;;;;1.75;1.65;;;9.60;1.00;;;;;;5097963;28;20058;-70
2023/04/25 03:05:24;;;;;;;2.17;1.98;;;9.60;1.00;;;;;;5053398;29;20055;-68
2023/04/25 03:07:58;;;;;;;2.13;1.60;;;9.50;1.00;;;;;;5123970;28;20118;-68
2023/04/25 03:10:31;;;;;;;1.02;1.02;;;9.50;1.00;;;;;;5107273;28;20351;-69
2023/04/25 03:13:05;;;;;;;1.40;1.30;;;9.40;1.00;;;;;;5091618;29;20061;-70
2023/04/25 03:15:44;;;;;;;1.98;1.10;;;9.40;1.00;;;;;;5092916;28;20053;-68
2023/04/25 03:18:16;;;;;;;1.05;1.05;;;9.40;1.00;;;;;;5097360;28;20039;-66
2023/04/25 03:20:50;;;;;;;1.50;1.40;;;9.30;1.00;;;;;;5099471;28;20030;-65
2023/04/25 03:23:21;;;;;;;1.40;1.30;;;9.30;1.00;;;;;;5082470;28;20065;-67
2023/04/25 03:25:57;;;;;;;1.25;1.15;;;9.20;1.00;;;;;;5068145;28;20361;-67
2023/04/25 03:28:28;;;;;;;2.75;1.70;;;9.30;1.00;;;;;;5095854;28;20224;-66
2023/04/25 03:31:02;;;;;;;2.05;1.50;;;9.30;1.00;;;;;;5114200;28;20038;-68
2023/04/25 03:33:34;;;;;;;1.52;1.42;;;9.30;1.00;;;;;;5093973;28;20496;-70
2023/04/25 03:36:06;;;;;;;1.40;1.23;;;9.30;1.00;;;;;;5131611;28;20038;-68
2023/04/25 03:38:38;;;;;;;1.50;1.40;;;9.20;1.00;;;;;;5082614;28;20183;-65
2023/04/25 03:41:10;;;;;;;2.30;1.38;;;9.20;1.00;;;;;;5114093;28;20047;-69
2023/04/25 03:43:45;;;;;;;1.30;1.20;;;9.20;1.00;;;;;;5082467;28;20500;-68
2023/04/25 03:46:16;;;;;;;1.23;1.15;;;9.10;1.00;;;;;;5076091;29;20332;-67
2023/04/25 03:48:50;;;;;;;1.20;1.10;;;9.10;1.00;;;;;;5129087;28;20042;-68
2023/04/25 03:51:27;;;;;;;1.58;1.48;;;9.10;1.00;;;;;;5096420;28;20035;-65
2023/04/25 03:53:59;;;;;;;1.95;1.20;;;9.10;1.00;;;;;;5095807;28;20049;-67
2023/04/25 03:56:30;;;;;;;1.25;1.15;;;9.10;1.00;;;;;;5111671;28;20692;-69
2023/04/25 03:59:07;;;;;;;1.55;1.45;;;9.00;1.00;;;;;;5093865;29;20047;-70
2023/04/25 04:01:40;;;;;;;1.27;1.17;;;9.00;1.00;;;;;;5100499;28;20503;-67
2023/04/25 04:04:14;;;;;;;1.50;1.30;;;9.00;1.00;;;;;;5103404;28;20074;-67
2023/04/25 04:06:46;;;;;;;1.63;1.42;;;8.90;1.00;;;;;;5114015;28;20526;-68
2023/04/25 04:09:17;;;;;;;1.33;1.27;;;9.00;1.00;;;;;;5129756;28;20039;-67
2023/04/25 04:12:01;;;;;;;2.05;1.38;;;8.90;1.00;;;;;;5110804;28;20035;-69
2023/04/25 04:14:35;;;;;;;1.30;1.20;;;9.00;1.00;;;;;;5128982;28;20139;-69
2023/04/25 04:17:11;;;;;;;1.67;1.30;;;8.90;1.00;;;;;;5112520;28;20543;-68
2023/04/25 04:19:51;;;;;;;1.50;1.40;;;8.90;1.00;;;;;;5107912;28;20319;-68
2023/04/25 04:22:25;;;;;;;1.45;1.35;;;8.90;1.00;;;;;;5077358;28;20470;-68
2023/04/25 04:24:59;;;;;;;2.22;1.20;;;8.80;1.00;;;;;;5112830;28;20670;-68
2023/04/25 04:27:31;;;;;;;1.23;1.10;;;8.80;1.00;;;;;;5100158;29;20046;-67
2023/04/25 04:30:04;;;;;;;1.88;1.20;;;8.90;1.00;;;;;;5076061;28;20042;-70
2023/04/25 04:32:44;;;;;;;2.45;1.50;;;8.90;1.00;;;;;;5099041;28;20051;-68
2023/04/25 04:35:18;;;;;;;1.20;1.10;;;8.90;1.00;;;;;;5129067;28;20053;-70
2023/04/25 04:37:56;;;;;;;2.42;1.48;;;8.90;1.00;;;;;;5080788;28;20054;-69
2023/04/25 04:40:33;;;;;;;1.70;1.60;;;8.90;1.00;;;;;;5108111;28;20047;-67
2023/04/25 04:43:05;;;;;;;1.67;1.50;;;8.80;1.00;;;;;;5111806;28;20039;-69
2023/04/25 04:45:43;;;;;;;2.05;1.45;;;8.80;1.00;;;;;;5127416;28;20051;-66
2023/04/25 04:48:14;;;;;;;1.20;1.02;;;8.70;1.00;;;;;;5108187;28;20046;-69
2023/04/25 04:50:49;;;;;;;1.20;1.10;;;8.50;1.00;;;;;;5129806;28;20057;-67
2023/04/25 04:53:22;;;;;;;1.63;1.35;;;8.40;1.00;;;;;;5100810;28;20050;-68
2023/04/25 04:55:55;;;;;;;2.30;1.50;;;8.40;1.00;;;;;;5094777;28;20481;-68
2023/04/25 04:58:36;;;;;;;1.63;1.50;;;8.30;1.00;;;;;;5090930;28;20304;-66
2023/04/25 05:01:07;;;;;;;1.02;0.95;;;8.40;1.00;;;;;;5094831;29;20660;-65
2023/04/25 05:03:41;;;;;;;1.33;1.20;;;8.30;1.00;;;;;;5105769;28;20238;-68
2023/04/25 05:06:13;;;;;;;1.55;1.35;;;8.30;1.00;;;;;;5096870;28;20047;-67
2023/04/25 05:08:47;;;;;;;1.42;1.33;;;8.30;1.00;;;;;;5109199;28;20050;-68
2023/04/25 05:11:25;;;;;;;1.63;1.52;;;8.30;1.00;;;;;;5093332;29;20047;-67
2023/04/25 05:13:59;;;;;;;1.75;1.20;;;8.20;1.00;;;;;;5100988;28;20086;-70
2023/04/25 05:16:30;;;;;;;;;;;8.30;1.00;;;;;;5077050;29;20043;-69
2023/04/25 05:19:09;;;;;;;1.45;1.35;;;8.20;1.00;;;;;;5085163;28;19921;-68
2023/04/25 05:21:43;;;;;;;1.58;1.27;;;8.10;1.00;;;;;;5095842;28;20051;-69
2023/04/25 05:24:17;;;;;;;1.30;1.20;;;8.20;1.00;;;;;;5112200;28;20039;-68
2023/04/25 05:26:57;;;;;;;2.30;1.55;;;8.30;1.00;;;;;;5105101;29;20043;-67
2023/04/25 05:29:34;;;;;;;1.42;1.33;;;8.70;1.00;;;;;;5102660;28;20042;-68
2023/04/25 05:32:07;;;;;;;3.53;2.17;;;8.90;1.00;;;;;;5110672;28;20235;-68
2023/04/25 05:34:41;;;;;;;1.52;1.42;;;9.30;1.00;;;;;;5077041;28;20051;-67
2023/04/25 05:37:18;;;;;;;1.55;1.45;;;9.50;1.00;;;;;;5130207;28;20236;-68
2023/04/25 05:39:55;;;;;;;1.48;1.38;;;9.70;1.00;;;;;;5083347;28;20047;-69
2023/04/25 05:42:29;;;;;;;1.70;1.30;;;9.70;1.00;;;;;;5088641;29;20051;-67
2023/04/25 05:45:02;;;;;;;1.45;1.13;;;9.80;1.00;;;;;;5080612;29;20047;-66
2023/04/25 05:47:33;;;;;;;1.35;1.25;;;10.10;1.00;;;;;;5109194;28;20035;-69
2023/04/25 05:50:11;;;;;;;1.85;1.75;;;10.30;1.00;;;;;;5115611;28;20062;-68
2023/04/25 05:52:53;;;;;;;1.40;1.30;;;10.50;1.00;;;;;;5115249;28;20282;-65
2023/04/25 05:55:25;;;;;;;1.30;1.20;;;10.80;1.00;;;;;;5107842;29;20026;-66
2023/04/25 05:58:01;;;;;;;1.95;1.65;;;11.10;1.00;;;;;;5090083;29;20051;-68
2023/04/25 06:00:35;;;;;;;1.67;1.52;;;11.20;1.00;;;;;;5075868;29;20170;-64
2023/04/25 06:03:14;;;;;;;3.53;2.55;;;11.30;1.00;;;;;;5097495;28;20043;-66
2023/04/25 06:05:51;;;;;;;1.70;1.60;;;11.10;99.90;;;;;;5085466;29;20063;-68
2023/04/25 06:08:25;;;;;;;1.50;1.40;;;11.30;1.00;;;;;;5100369;28;20382;-67
2023/04/25 06:10:57;;;;;;;1.83;1.55;;;11.50;1.00;;;;;;5114157;28;20057;-67
2023/04/25 06:13:31;;;;;;;1.30;1.20;;;11.50;1.00;;;;;;5112349;28;20243;-64
2023/04/25 06:16:03;;;;;;;2.20;1.80;;;11.60;1.00;;;;;;5127208;28;20049;-69
2023/04/25 06:18:40;;;;;;;1.98;1.77;;;11.70;1.00;;;;;;5116212;28;20042;-69
2023/04/25 06:21:14;;;;;;;1.10;1.08;;;11.80;1.00;;;;;;5084622;28;20050;-66
2023/04/25 06:23:45;;;;;;;2.58;1.45;;;11.80;1.00;;;;;;5129967;28;20199;-68
2023/04/25 06:26:23;;;;;;;1.50;1.40;;;11.80;1.00;;;;;;5128230;28;20382;-68
2023/04/25 06:28:57;;;;;;;1.83;1.67;;;12.10;1.00;;;;;;5097091;28;20093;-68
2023/04/25 06:31:33;;;;;;;1.42;1.33;;;12.10;1.00;;;;;;5089886;28;20047;-68
2023/04/25 06:34:07;;;;;;;1.40;1.30;;;12.20;60.40;;;;;;5132059;28;20049;-69
2023/04/25 06:36:38;;;;;;;1.67;1.58;;;12.20;36.40;;;;;;5128440;28;20039;-68
2023/04/25 06:39:17;;;;;;;1.25;1.20;;;12.20;8.60;;;;;;5114361;28;20042;-68
2023/04/25 06:41:49;;;;;;;1.60;1.50;;;12.30;20.30;;;;;;5103728;28;20231;-65
2023/04/25 06:44:22;;;;;;;1.65;1.40;;;12.30;34.50;;;;;;5086610;28;20058;-70
2023/04/25 06:46:57;;;;;;;1.67;1.57;;;12.20;60.30;;;;;;5127086;28;20033;-67
2023/04/25 06:49:31;;;;;;;1.75;1.65;;;12.20;33.70;;;;;;5106598;28;20283;-68
2023/04/25 06:52:05;;;;;;;;;;;12.30;65.20;;;;;;5108627;29;20078;-69
2023/04/25 06:54:36;;;;;;;1.50;1.40;;;12.40;99.90;;;;;;5097399;29;19914;-67
2023/04/25 06:57:14;;;;;;;1.73;1.50;;;12.40;99.90;;;;;;5089413;28;20049;-68
2023/04/25 06:59:46;;;;;;;1.30;1.20;;;12.30;99.90;;;;;;5112637;28;20051;-66
2023/04/25 07:02:17;;;;;;;1.50;1.40;;;12.20;99.90;;;;;;5088725;28;20462;-68
2023/04/25 07:04:49;;;;;;;1.42;1.33;;;12.20;99.90;;;;;;5104818;28;20170;-68
2023/04/25 07:07:22;;;;;;;1.25;1.15;;;12.30;99.90;;;;;;5094098;29;20053;-68
2023/04/25 07:09:54;;;;;;;1.60;1.50;;;12.40;99.90;;;;;;5122523;28;20053;-69
2023/04/25 07:12:31;;;;;;;1.20;1.10;;;12.50;99.90;;;;;;5113935;28;20052;-68
2023/04/25 07:15:05;;;;;;;1.40;1.30;;;12.60;99.90;;;;;;5103823;28;20057;-70
2023/04/25 07:17:37;;;;;;;1.33;1.23;;;12.80;99.90;;;;;;5114148;28;20403;-69
2023/04/25 07:20:12;;;;;;;1.48;1.38;;;13.00;99.90;;;;;;5098215;28;20242;-69
2023/04/25 07:22:45;;;;;;;1.30;1.20;;;13.10;99.90;;;;;;5110338;28;20045;-69
2023/04/25 07:25:17;;;;;;;1.67;1.58;;;13.00;99.90;;;;;;5113561;28;20043;-67
2023/04/25 07:27:51;;;;;;;1.30;1.20;;;12.90;99.90;;;;;;5113759;28;20045;-67
2023/04/25 07:30:28;;;;;;;1.50;1.40;;;13.00;99.90;;;;;;5078610;28;20246;-66
2023/04/25 07:32:59;;;;;;;1.60;1.50;;;13.20;99.90;;;;;;5116906;28;20050;-67
2023/04/25 07:35:31;;;;;;;1.40;1.30;;;13.10;99.90;;;;;;5113548;28;20101;-68
2023/04/25 07:38:06;;;;;;;1.60;1.50;;;13.10;99.90;;;;;;5113828;28;20053;-68
2023/04/25 07:40:37;;;;;;;1.48;1.38;;;13.40;99.90;;;;;;5097806;28;20060;-67
2023/04/25 07:43:12;;;;;;;2.08;1.48;;;13.20;99.90;;;;;;5114073;28;20057;-68
2023/04/25 07:45:46;;;;;;;1.67;1.58;;;13.20;99.90;;;;;;5094887;28;20050;-68
2023/04/25 07:48:21;;;;;;;1.77;1.67;;;13.40;99.90;;;;;;5096951;28;20328;-69
2023/04/25 07:50:53;;;;;;;1.50;1.40;;;13.70;99.90;;;;;;5112308;28;20047;-67
2023/04/25 07:53:24;;;;;;;1.25;1.15;;;13.80;99.90;;;;;;5097254;28;20035;-68
2023/04/25 07:55:58;;;;;;;2.08;1.98;;;13.70;99.90;;;;;;5113638;28;20261;-68
2023/04/25 07:58:30;;;;;;;1.65;1.55;;;13.80;99.90;;;;;;5123179;28;20046;-68
2023/04/25 08:01:01;;;;;;;1.63;1.20;;;13.80;99.90;;;;;;5134117;28;20362;-67
2023/04/25 08:03:35;;;;;;;2.38;1.77;;;14.10;99.90;;;;;;5097391;28;20057;-66
2023/04/25 08:06:09;;;;;;;;;;;13.80;99.90;;;;;;5085307;29;20051;-68
2023/04/25 08:08:42;;;;;;;1.50;1.27;;;13.90;99.90;;;;;;5092138;28;20061;-68
2023/04/25 08:11:16;;;;;;;2.00;1.73;;;14.00;99.90;;;;;;5097692;28;20043;-65
2023/04/25 08:13:50;;;;;;;1.70;1.60;;;14.10;99.90;;;;;;5110725;28;20257;-67
2023/04/25 08:16:22;;;;;;;;;;;13.90;99.90;;;;;;5099191;28;20037;-69
2023/04/25 08:18:56;;;;;;;2.97;1.80;;;14.30;99.90;;;;;;5096968;28;19932;-68
2023/04/25 08:21:29;;;;;;;1.63;1.52;;;14.40;99.90;;;;;;5096208;28;20325;-69
2023/04/25 08:24:05;;;;;;;1.50;1.40;;;14.80;99.90;;;;;;5078357;28;20388;-67
2023/04/25 08:26:39;;;;;;;1.70;1.60;;;14.70;99.90;;;;;;5130278;28;20062;-68
2023/04/25 08:29:13;;;;;;;1.85;1.75;;;15.00;99.90;;;;;;5109751;28;20032;-68
2023/04/25 08:31:44;;;;;;;1.83;1.73;;;15.00;99.90;;;;;;5108413;28;20355;-67
2023/04/25 08:34:23;;;;;;;1.58;1.48;;;15.20;99.90;;;;;;5130973;28;20035;-68
2023/04/25 08:36:56;;;;;;;1.38;1.27;;;15.40;99.90;;;;;;5130804;28;20039;-68
2023/04/25 08:39:36;;;;;;;1.73;1.10;;;15.40;99.90;;;;;;5091947;29;20324;-68
2023/04/25 08:42:14;;;;;;;1.60;1.50;;;15.50;99.90;;;;;;5109391;29;20047;-69
2023/04/25 08:44:53;;;;;;;1.45;1.35;;;15.10;99.90;;;;;;5128889;28;20045;-67
2023/04/25 08:47:29;;;;;;;1.60;1.50;;;15.20;99.90;;;;;;5126239;28;20034;-66
2023/04/25 08:50:03;;;;;;;1.30;1.20;;;15.00;99.90;;;;;;5109929;29;20423;-66
2023/04/25 08:52:43;;;;;;;;;;;14.70;99.90;;;;;;5117455;28;20352;-67
2023/04/25 08:55:19;;;;;;;1.58;1.48;;;14.50;99.90;;;;;;5081048;28;19925;-65
2023/04/25 08:57:54;;;;;;;1.55;1.45;;;14.10;99.90;;;;;;5125619;28;20035;-67
2023/04/25 09:00:25;;;;;;;1.23;1.10;;;14.10;99.90;;;;;;5111640;28;20043;-65
2023/04/25 09:02:59;;;;;;;1.60;1.30;;;14.00;99.90;;;;;;5096499;28;20509;-65
2023/04/25 09:05:33;;;;;;;2.30;2.08;;;14.20;99.90;;;;;;5075889;28;20283;-68
2023/04/25 09:08:07;;;;;;;;;;;13.90;99.90;;;;;;5097316;28;20049;-66
2023/04/25 09:10:40;;;;;;;1.58;1.48;;;14.20;99.90;;;;;;5116432;28;20318;-68
2023/04/25 09:13:17;;;;;;;1.48;1.38;;;14.60;99.90;;;;;;5083506;28;20050;-66
2023/04/25 09:15:54;;;;;;;1.25;1.17;;;15.00;99.90;;;;;;5095617;28;20043;-70
2023/04/25 09:18:33;;;;;;;1.20;1.10;;;14.50;99.90;;;;;;5116799;28;20353;-65
2023/04/25 09:21:12;;;;;;;1.25;1.00;;;14.00;99.90;;;;;;5112847;28;20037;-69
2023/04/25 09:23:48;;;;;;;1.02;0.93;;;13.30;99.90;;;;;;5096565;29;20039;-65
2023/04/25 09:26:22;;;;;;;1.75;0.98;;;12.40;99.90;;;;;;5095869;29;20046;-68
2023/04/25 09:29:10;;;;;;;0.80;0.80;;;11.80;99.90;;;;;;5096026;29;20043;-64
2023/04/25 09:31:45;;;;;;;1.10;1.10;;;11.70;99.90;;;;;;5095169;28;20035;-66
2023/04/25 09:34:16;;;;;;;;;;;11.90;99.90;;;;;;5100396;28;20049;-68
2023/04/25 09:36:58;;;;;;;1.25;1.08;;;12.20;99.90;;;;;;5115202;28;19910;-68
2023/04/25 09:39:36;;;;;;;0.88;0.88;;;12.40;99.90;;;;;;5098775;28;20644;-68
2023/04/25 09:42:14;;;;;;;2.65;1.13;;;12.80;99.90;;;;;;5083311;28;20057;-66
2023/04/25 09:44:52;;;;;;;1.25;1.15;;;13.30;99.90;;;;;;5083349;28;20042;-67
2023/04/25 09:47:28;;;;;;;1.60;1.50;;;13.70;99.90;;;;;;5081801;28;20056;-67
2023/04/25 09:50:02;;;;;;;1.55;1.45;;;13.90;99.90;;;;;;5099520;28;20474;-68
2023/04/25 09:52:36;;;;;;;1.60;1.13;;;14.10;99.90;;;;;;5099154;28;20274;-67
2023/04/25 09:55:08;;;;;;;1.40;1.30;;;14.60;99.90;;;;;;5098477;28;20393;-68
2023/04/25 09:57:40;;;;;;;1.55;1.45;;;14.90;99.90;;;;;;5105998;29;20031;-69
2023/04/25 10:00:18;;;;;;;1.70;1.40;;;15.30;99.90;;;;;;5093178;28;20039;-65
2023/04/25 10:02:59;;;;;;;1.65;1.40;;;16.10;99.90;;;;;;5115446;28;20464;-69
2023/04/25 10:05:32;;;;;;;1.40;1.35;;;16.80;99.90;;;;;;5050491;29;20094;-68
2023/04/25 10:08:08;;;;;;;1.20;1.10;;;15.30;99.90;;;;;;5091088;29;20045;-68
2023/04/25 10:10:41;;;;;;;1.38;1.27;;;13.60;99.90;;;;;;5107518;28;20034;-67
2023/04/25 10:13:14;;;;;;;0.98;0.85;;;12.50;99.90;;;;;;5117938;28;20332;-66
2023/04/25 10:15:49;;;;;;;1.10;1.10;;;11.60;99.90;;;;;;5108814;29;20192;-68
2023/04/25 10:18:21;;;;;;;1.13;1.02;;;10.70;99.90;;;;;;5083053;28;20049;-72
2023/04/25 10:21:02;;;;;;;1.35;1.25;;;10.30;99.90;;;;;;5082136;28;20050;-71
2023/04/25 10:23:34;;;;;;;1.35;1.10;;;9.60;99.90;;;;;;5114892;28;20229;-72
2023/04/25 10:26:12;;;;;;;1.20;1.10;;;9.10;99.90;;;;;;5098718;28;20154;-70
2023/04/25 10:28:58;;;;;;;0.85;0.85;;;9.00;99.90;;;;;;5110188;28;20407;-69
2023/04/25 10:31:33;;;;;;;1.65;1.55;;;8.90;99.90;;;;;;5109020;28;20046;-68
2023/04/25 10:34:05;;;;;;;;;;;9.10;99.90;;;;;;5099907;28;20287;-69
2023/04/25 10:36:39;;;;;;;0.55;0.55;;;9.30;99.90;;;;;;5099617;28;19925;-68
2023/04/25 10:39:13;;;;;;;;;;;9.60;99.90;;;;;;5110394;28;20030;-70
2023/04/25 10:41:59;;;;;;;0.70;0.70;;;9.90;99.90;;;;;;5132859;28;20103;-68
2023/04/25 10:44:31;;;;;;;4.68;0.95;;;10.60;99.90;;;;;;5115521;28;20514;-67
2023/04/25 10:47:07;;;;;;;1.00;0.80;;;11.30;99.90;;;;;;5112329;28;20377;-67
2023/04/25 10:49:45;;;;;;;0.80;0.80;;;12.00;99.90;;;;;;5115323;28;20027;-66
2023/04/25 10:52:35;;;;;;;1.40;1.30;;;12.70;99.90;;;;;;5114196;28;20282;-69
2023/04/25 10:55:07;;;;;;;1.20;1.15;;;13.50;99.90;;;;;;5099742;28;20138;-67
2023/04/25 10:57:48;;;;;;;1.38;1.27;;;15.00;99.90;;;;;;5118474;28;20038;-68
2023/04/25 11:00:29;;;;;;;1.20;1.20;;;17.00;99.90;;;;;;5111398;28;20023;-65
2023/04/25 11:03:02;;;;;;;1.00;1.00;;;19.10;99.90;;;;;;5092107;28;20047;-66
2023/04/25 11:05:38;;;;;;;1.33;1.23;;;20.80;99.90;;;;;;5103790;28;20059;-66
2023/04/25 11:08:11;;;;;;;1.35;1.23;;;21.00;99.90;;;;;;5097993;28;20253;-68
2023/04/25 11:10:49;;;;;;;1.65;1.55;;;20.80;99.90;;;;;;5079304;29;20220;-66
2023/04/25 11:13:32;;;;;;;1.42;1.33;;;20.20;99.90;;;;;;5082299;28;20045;-65
2023/04/25 11:16:07;;;;;;;1.67;1.52;;;17.40;99.90;;;;;;5110908;28;20052;-68
2023/04/25 11:18:44;;;;;;;1.33;1.23;;;16.70;99.90;;;;;;5110079;28;20047;-67
2023/04/25 11:21:18;;;;;;;1.50;1.40;;;17.40;99.90;;;;;;5097452;28;20049;-66
2023/04/25 11:23:50;;;;;;;1.63;1.50;;;19.00;99.90;;;;;;5095629;28;20467;-68
2023/04/25 11:26:32;;;;;;;2.60;1.42;;;19.30;99.90;;;;;;5110466;29;20509;-66
2023/04/25 11:29:04;;;;;;;2.03;1.25;;;18.10;99.90;;;;;;5110972;29;20046;-70
2023/04/25 11:31:35;;;;;;;2.30;1.85;;;15.00;99.90;;;;;;5108653;28;20042;-69
2023/04/25 11:34:12;;;;;;;1.55;1.45;;;12.40;99.90;;;;;;5097594;28;20038;-72
2023/04/25 11:36:47;;;;;;;2.75;2.42;;;10.80;99.90;;;;;;5097738;28;20038;-69
2023/04/25 11:39:22;;;;;;;1.67;1.58;;;9.80;99.90;;;;;;5114536;28;20043;-69
2023/04/25 11:41:57;;;;;;;1.90;1.45;;;9.30;99.90;;;;;;5114031;28;20483;-67
2023/04/25 11:44:33;;;;;;;1.30;1.20;;;9.20;99.90;;;;;;5097603;28;20039;-68
2023/04/25 11:47:04;;;;;;;1.20;1.10;;;9.20;99.90;;;;;;5109602;28;20035;-70
2023/04/25 11:49:36;;;;;;;1.30;1.20;;;9.10;99.90;;;;;;5096788;28;20111;-70
2023/04/25 11:52:10;;;;;;;1.30;1.20;;;9.10;99.90;;;;;;5096786;28;20321;-71
2023/04/25 11:54:44;;;;;;;1.98;1.25;;;9.20;99.90;;;;;;5096122;29;20288;-70
2023/04/25 11:57:20;;;;;;;1.40;1.27;;;9.40;99.90;;;;;;5077778;29;20043;-70
2023/04/25 11:59:51;;;;;;;1.50;1.40;;;9.80;99.90;;;;;;5093603;29;20235;-68
2023/04/25 12:02:30;;;;;;;1.08;1.08;;;10.30;99.90;;;;;;5119799;28;20040;-64
2023/04/25 12:05:08;;;;;;;1.23;1.13;;;11.00;99.90;;;;;;5103301;28;20051;-68
2023/04/25 12:07:42;;;;;;;1.20;1.10;;;11.70;99.90;;;;;;5084665;29;20335;-64
2023/04/25 12:10:17;;;;;;;;;;;12.50;99.90;;;;;;5112392;28;20043;-66
2023/04/25 12:13:00;;;;;;;1.50;1.08;;;13.80;99.90;;;;;;5085341;28;20287;-65
2023/04/25 12:15:35;;;;;;;1.50;1.35;;;15.30;99.90;;;;;;5063925;28;20070;-66
2023/04/25 12:18:09;;;;;;;1.02;1.00;;;15.70;99.90;;;;;;5113528;28;20332;-67
2023/04/25 12:20:44;;;;;;;1.02;1.00;;;15.90;99.90;;;;;;5077239;28;20035;-68
2023/04/25 12:23:27;;;;;;;1.08;1.02;;;16.50;99.90;;;;;;5112393;28;20042;-64
2023/04/25 12:26:05;;;;;;;0.90;0.90;;;16.90;99.90;;;;;;5127675;28;20043;-66
2023/04/25 12:28:38;;;;;;;1.25;0.90;;;16.30;99.90;;;;;;5124544;28;20035;-68
2023/04/25 12:31:14;;;;;;;1.35;1.25;;;16.70;99.90;;;;;;5107629;29;20043;-67
2023/04/25 12:33:47;;;;;;;1.27;1.20;;;16.40;99.90;;;;;;5124856;28;20455;-68
2023/04/25 12:36:19;;;;;;;1.10;1.10;;;16.70;99.90;;;;;;5111642;28;20038;-69
2023/04/25 12:38:51;;;;;;;1.08;1.00;;;16.60;99.90;;;;;;5111956;28;20057;-68
2023/04/25 12:41:25;;;;;;;1.58;1.10;;;15.40;99.90;;;;;;5113306;28;20027;-68
2023/04/25 12:43:58;;;;;;;1.10;1.10;;;15.60;99.90;;;;;;5097011;28;20034;-67
2023/04/25 12:46:29;;;;;;;0.93;0.93;;;14.80;99.90;;;;;;5084116;28;20051;-69
2023/04/25 12:49:04;;;;;;;1.38;1.27;;;14.60;99.90;;;;;;5125273;28;20474;-69
2023/04/25 12:51:37;;;;;;;0.90;0.90;;;15.70;99.90;;;;;;5098220;28;20031;-68
2023/04/25 12:54:12;;;;;;;1.48;1.38;;;16.70;99.90;;;;;;5107322;28;20042;-66
2023/04/25 12:56:48;;;;;;;1.02;1.02;;;17.80;99.90;;;;;;5116972;28;20043;-68
2023/04/25 12:59:22;;;;;;;1.23;1.08;;;18.70;99.90;;;;;;5106967;28;20051;-67
2023/04/25 13:02:03;;;;;;;0.80;0.80;;;18.90;99.90;;;;;;5110473;28;20162;-68
2023/04/25 13:04:37;;;;;;;0.90;0.90;;;19.30;99.90;;;;;;5129960;28;20227;-69
2023/04/25 13:07:16;;;;;;;1.10;1.10;;;18.70;99.90;;;;;;5107308;29;20049;-67
2023/04/25 13:09:52;;;;;;;1.00;1.00;;;19.10;99.90;;;;;;5105445;28;20582;-66
2023/04/25 13:12:28;;;;;;;1.10;1.10;;;19.60;99.90;;;;;;5085974;28;20051;-68
2023/04/25 13:15:03;;;;;;;1.92;1.30;;;19.70;99.90;;;;;;5102631;28;20049;-66
2023/04/25 13:17:38;;;;;;;;;;;19.00;99.90;;;;;;5100068;28;20058;-66
2023/04/25 13:20:14;;;;;;;1.35;1.25;;;19.00;99.90;;;;;;5103101;29;19926;-68
2023/04/25 13:22:46;;;;;;;0.90;0.90;;;18.60;99.90;;;;;;5113901;28;20039;-65
2023/04/25 13:25:24;;;;;;;0.90;0.90;;;19.40;99.90;;;;;;5096640;28;20046;-69
2023/04/25 13:27:56;;;;;;;1.02;1.02;;;19.50;99.90;;;;;;5101247;28;20053;-68
2023/04/25 13:30:27;;;;;;;0.77;0.77;;;20.10;99.90;;;;;;5130745;28;20197;-67
2023/04/25 13:33:06;;;;;;;1.58;1.30;;;19.40;99.90;;;;;;5100081;28;20042;-69
2023/04/25 13:35:38;;;;;;;1.20;1.10;;;18.20;99.90;;;;;;5115840;28;20042;-68
2023/04/25 13:38:13;;;;;;;1.77;1.00;;;18.10;99.90;;;;;;5098842;28;20613;-67
2023/04/25 13:40:52;;;;;;;0.90;0.90;;;17.90;99.90;;;;;;5100675;28;20042;-67